sensor_id;sensor_type;location;lat;lon;timestamp;pressure;altitude;pressure_sealevel;temperature;humidity
73651;BME280;61944;52.538;6.108;2024-02-28T00:01:25;101883.47;;;3.60;100.00
73651;BME280;61944;52.538;6.108;2024-02-28T00:03:50;101888.31;;;3.68;100.00
73651;BME280;61944;52.538;6.108;2024-02-28T00:06:16;101886.44;;;3.77;100.00
73651;BME280;61944;52.538;6.108;2024-02-28T00:08:42;101885.94;;;3.75;100.00
73651;BME280;61944;52.538;6.108;2024-02-28T00:11:07;101886.88;;;3.84;100.00
73651;BME280;61944;52.538;6.108;2024-02-28T00:13:32;101866.97;;;3.69;100.00
73651;BME280;61944;52.538;6.108;2024-02-28T00:15:58;101874.06;;;3.89;100.00
73651;BME280;61944;52.538;6.108;2024-02-28T00:18:23;101868.00;;;3.86;100.00
73651;BME280;61944;52.538;6.108;2024-02-28T00:20:48;101869.56;;;3.93;100.00
73651;BME280;61944;52.538;6.108;2024-02-28T00:23:14;101871.69;;;3.96;100.00
73651;BME280;61944;52.538;6.108;2024-02-28T00:25:39;101877.16;;;3.73;100.00
73651;BME280;61944;52.538;6.108;2024-02-28T00:28:05;101869.63;;;3.87;100.00
73651;BME280;61944;52.538;6.108;2024-02-28T00:30:33;101870.25;;;3.84;100.00
73651;BME280;61944;52.538;6.108;2024-02-28T00:32:59;101871.78;;;3.77;100.00
73651;BME280;61944;52.538;6.108;2024-02-28T00:35:25;101873.56;;;3.86;100.00
73651;BME280;61944;52.538;6.108;2024-02-28T00:37:50;101871.38;;;3.83;100.00
73651;BME280;61944;52.538;6.108;2024-02-28T00:40:16;101875.50;;;3.86;100.00
73651;BME280;61944;52.538;6.108;2024-02-28T00:42:41;101873.34;;;3.83;100.00
73651;BME280;61944;52.538;6.108;2024-02-28T00:45:08;101876.03;;;3.88;100.00
73651;BME280;61944;52.538;6.108;2024-02-28T00:47:34;101870.78;;;3.86;100.00
73651;BME280;61944;52.538;6.108;2024-02-28T00:50:00;101861.84;;;3.90;100.00
73651;BME280;61944;52.538;6.108;2024-02-28T00:52:28;101873.22;;;3.74;100.00
73651;BME280;61944;52.538;6.108;2024-02-28T00:54:53;101868.09;;;3.81;100.00
73651;BME280;61944;52.538;6.108;2024-02-28T00:57:19;101872.72;;;3.72;100.00
73651;BME280;61944;52.538;6.108;2024-02-28T00:59:44;101869.03;;;3.63;100.00
73651;BME280;61944;52.538;6.108;2024-02-28T01:02:10;101880.19;;;3.44;100.00
73651;BME280;61944;52.538;6.108;2024-02-28T01:04:35;101873.34;;;3.69;100.00
73651;BME280;61944;52.538;6.108;2024-02-28T01:07:00;101860.13;;;3.80;100.00
73651;BME280;61944;52.538;6.108;2024-02-28T01:09:25;101874.47;;;3.54;100.00
73651;BME280;61944;52.538;6.108;2024-02-28T01:11:51;101867.56;;;3.52;100.00
73651;BME280;61944;52.538;6.108;2024-02-28T01:14:16;101871.38;;;3.70;100.00
73651;BME280;61944;52.538;6.108;2024-02-28T01:16:42;101873.34;;;3.69;100.00
73651;BME280;61944;52.538;6.108;2024-02-28T01:19:07;101871.59;;;3.73;100.00
73651;BME280;61944;52.538;6.108;2024-02-28T01:21:33;101858.25;;;3.75;100.00
73651;BME280;61944;52.538;6.108;2024-02-28T01:23:58;101860.41;;;3.78;100.00
73651;BME280;61944;52.538;6.108;2024-02-28T01:26:23;101852.00;;;3.70;100.00
73651;BME280;61944;52.538;6.108;2024-02-28T01:28:49;101858.38;;;3.70;100.00
73651;BME280;61944;52.538;6.108;2024-02-28T01:31:15;101862.47;;;3.86;100.00
73651;BME280;61944;52.538;6.108;2024-02-28T01:33:40;101865.03;;;3.69;100.00
73651;BME280;61944;52.538;6.108;2024-02-28T01:36:06;101863.50;;;3.63;100.00
73651;BME280;61944;52.538;6.108;2024-02-28T01:38:32;101871.50;;;3.78;100.00
73651;BME280;61944;52.538;6.108;2024-02-28T01:40:57;101866.78;;;3.65;100.00
73651;BME280;61944;52.538;6.108;2024-02-28T01:43:22;101868.22;;;3.76;100.00
73651;BME280;61944;52.538;6.108;2024-02-28T01:45:48;101862.47;;;3.59;100.00
73651;BME280;61944;52.538;6.108;2024-02-28T01:48:13;101863.69;;;3.66;100.00
73651;BME280;61944;52.538;6.108;2024-02-28T01:50:39;101864.19;;;3.69;100.00
73651;BME280;61944;52.538;6.108;2024-02-28T01:53:08;101867.38;;;3.62;100.00
73651;BME280;61944;52.538;6.108;2024-02-28T01:55:37;101861.88;;;3.76;100.00
73651;BME280;61944;52.538;6.108;2024-02-28T01:58:03;101871.78;;;3.77;100.00
73651;BME280;61944;52.538;6.108;2024-02-28T02:00:32;101862.56;;;3.81;100.00
73651;BME280;61944;52.538;6.108;2024-02-28T02:02:58;101861.00;;;3.75;100.00
73651;BME280;61944;52.538;6.108;2024-02-28T02:05:24;101857.53;;;3.70;100.00
73651;BME280;61944;52.538;6.108;2024-02-28T02:07:49;101857.66;;;3.78;100.00
73651;BME280;61944;52.538;6.108;2024-02-28T02:10:15;101854.88;;;3.64;100.00
73651;BME280;61944;52.538;6.108;2024-02-28T02:12:41;101855.19;;;3.63;100.00
73651;BME280;61944;52.538;6.108;2024-02-28T02:15:06;101856.72;;;3.69;100.00
73651;BME280;61944;52.538;6.108;2024-02-28T02:17:32;101854.25;;;3.54;100.00
73651;BME280;61944;52.538;6.108;2024-02-28T02:19:57;101849.44;;;3.59;100.00
73651;BME280;61944;52.538;6.108;2024-02-28T02:22:26;101856.94;;;3.59;100.00
73651;BME280;61944;52.538;6.108;2024-02-28T02:24:52;101860.72;;;3.63;100.00
73651;BME280;61944;52.538;6.108;2024-02-28T02:27:17;101852.81;;;3.70;100.00
73651;BME280;61944;52.538;6.108;2024-02-28T02:29:43;101850.88;;;3.71;100.00
73651;BME280;61944;52.538;6.108;2024-02-28T02:32:08;101851.19;;;3.69;100.00
73651;BME280;61944;52.538;6.108;2024-02-28T02:34:34;101856.72;;;3.69;100.00
73651;BME280;61944;52.538;6.108;2024-02-28T02:36:59;101854.03;;;3.64;100.00
73651;BME280;61944;52.538;6.108;2024-02-28T02:39:24;101855.19;;;3.63;100.00
73651;BME280;61944;52.538;6.108;2024-02-28T02:41:50;101849.13;;;3.61;100.00
73651;BME280;61944;52.538;6.108;2024-02-28T02:44:15;101861.44;;;3.55;100.00
73651;BME280;61944;52.538;6.108;2024-02-28T02:46:41;101856.31;;;3.48;100.00
73651;BME280;61944;52.538;6.108;2024-02-28T02:49:06;101866.34;;;3.58;100.00
73651;BME280;61944;52.538;6.108;2024-02-28T02:51:32;101859.38;;;3.60;100.00
73651;BME280;61944;52.538;6.108;2024-02-28T02:53:57;101855.78;;;3.60;100.00
73651;BME280;61944;52.538;6.108;2024-02-28T02:56:22;101847.50;;;3.46;100.00
73651;BME280;61944;52.538;6.108;2024-02-28T02:58:48;101855.69;;;3.51;100.00
73651;BME280;61944;52.538;6.108;2024-02-28T03:01:13;101851.25;;;3.36;100.00
73651;BME280;61944;52.538;6.108;2024-02-28T03:03:38;101843.34;;;3.43;100.00
73651;BME280;61944;52.538;6.108;2024-02-28T03:06:04;101841.03;;;3.51;100.00
73651;BME280;61944;52.538;6.108;2024-02-28T03:08:32;101852.81;;;3.42;100.00
73651;BME280;61944;52.538;6.108;2024-02-28T03:10:58;101842.97;;;3.50;100.00
73651;BME280;61944;52.538;6.108;2024-02-28T03:13:23;101839.38;;;3.50;100.00
73651;BME280;61944;52.538;6.108;2024-02-28T03:15:49;101840.69;;;3.38;100.00
73651;BME280;61944;52.538;6.108;2024-02-28T03:18:14;101832.81;;;3.32;100.00
73651;BME280;61944;52.538;6.108;2024-02-28T03:20:39;101825.09;;;3.29;100.00
73651;BME280;61944;52.538;6.108;2024-02-28T03:23:05;101830.78;;;3.37;100.00
73651;BME280;61944;52.538;6.108;2024-02-28T03:25:32;101829.31;;;3.26;100.00
73651;BME280;61944;52.538;6.108;2024-02-28T03:27:58;101825.84;;;3.34;100.00
73651;BME280;61944;52.538;6.108;2024-02-28T03:30:24;101826.88;;;3.38;100.00
73651;BME280;61944;52.538;6.108;2024-02-28T03:32:49;101826.19;;;3.14;100.00
73651;BME280;61944;52.538;6.108;2024-02-28T03:35:15;101820.59;;;3.19;100.00
73651;BME280;61944;52.538;6.108;2024-02-28T03:37:40;101834.72;;;3.17;100.00
73651;BME280;61944;52.538;6.108;2024-02-28T03:40:06;101834.75;;;3.31;100.00
73651;BME280;61944;52.538;6.108;2024-02-28T03:42:32;101837.50;;;2.84;100.00
73651;BME280;61944;52.538;6.108;2024-02-28T03:44:57;101836.56;;;3.22;100.00
73651;BME280;61944;52.538;6.108;2024-02-28T03:47:22;101836.59;;;3.36;100.00
73651;BME280;61944;52.538;6.108;2024-02-28T03:49:48;101842.94;;;3.36;100.00
73651;BME280;61944;52.538;6.108;2024-02-28T03:52:13;101849.41;;;3.45;100.00
73651;BME280;61944;52.538;6.108;2024-02-28T03:54:42;101851.38;;;3.45;100.00
73651;BME280;61944;52.538;6.108;2024-02-28T03:57:08;101853.84;;;3.46;100.00
73651;BME280;61944;52.538;6.108;2024-02-28T03:59:33;101856.69;;;3.41;100.00
73651;BME280;61944;52.538;6.108;2024-02-28T04:01:58;101859.56;;;3.36;100.00
73651;BME280;61944;52.538;6.108;2024-02-28T04:04:27;101863.25;;;3.45;100.00
73651;BME280;61944;52.538;6.108;2024-02-28T04:06:52;101850.16;;;3.37;100.00
73651;BME280;61944;52.538;6.108;2024-02-28T04:09:17;101857.72;;;3.45;100.00
73651;BME280;61944;52.538;6.108;2024-02-28T04:11:43;101858.75;;;3.50;100.00
73651;BME280;61944;52.538;6.108;2024-02-28T04:14:09;101858.56;;;3.46;100.00
73651;BME280;61944;52.538;6.108;2024-02-28T04:16:34;101847.59;;;3.55;100.00
73651;BME280;61944;52.538;6.108;2024-02-28T04:18:59;101854.25;;;3.54;100.00
73651;BME280;61944;52.538;6.108;2024-02-28T04:21:24;101855.06;;;3.40;100.00
73651;BME280;61944;52.538;6.108;2024-02-28T04:23:50;101863.25;;;3.45;100.00
73651;BME280;61944;52.538;6.108;2024-02-28T04:26:15;101856.31;;;3.48;100.00
73651;BME280;61944;52.538;6.108;2024-02-28T04:28:42;101854.66;;;3.33;100.00
73651;BME280;61944;52.538;6.108;2024-02-28T04:31:07;101849.53;;;3.40;100.00
73651;BME280;61944;52.538;6.108;2024-02-28T04:33:34;101864.06;;;3.32;100.00
73651;BME280;61944;52.538;6.108;2024-02-28T04:35:59;101859.78;;;3.40;100.00
73651;BME280;61944;52.538;6.108;2024-02-28T04:38:25;101856.16;;;3.39;100.00
73651;BME280;61944;52.538;6.108;2024-02-28T04:40:50;101857.06;;;3.21;100.00
73651;BME280;61944;52.538;6.108;2024-02-28T04:43:15;101861.63;;;3.44;100.00
73651;BME280;61944;52.538;6.108;2024-02-28T04:45:41;101866.94;;;3.27;100.00
73651;BME280;61944;52.538;6.108;2024-02-28T04:48:06;101877.59;;;3.47;100.00
73651;BME280;61944;52.538;6.108;2024-02-28T04:50:32;101862.25;;;3.55;100.00
73651;BME280;61944;52.538;6.108;2024-02-28T04:52:57;101868.00;;;3.59;100.00
73651;BME280;61944;52.538;6.108;2024-02-28T04:55:22;101868.19;;;3.49;100.00
73651;BME280;61944;52.538;6.108;2024-02-28T04:57:48;101858.75;;;3.50;100.00
73651;BME280;61944;52.538;6.108;2024-02-28T05:00:13;101858.44;;;3.51;100.00
73651;BME280;61944;52.538;6.108;2024-02-28T05:02:39;101870.38;;;3.65;100.00
73651;BME280;61944;52.538;6.108;2024-02-28T05:05:04;101865.56;;;3.71;100.00
73651;BME280;61944;52.538;6.108;2024-02-28T05:07:30;101885.44;;;3.73;100.00
73651;BME280;61944;52.538;6.108;2024-02-28T05:09:55;101867.28;;;3.67;100.00
73651;BME280;61944;52.538;6.108;2024-02-28T05:12:21;101865.13;;;3.64;100.00
73651;BME280;61944;52.538;6.108;2024-02-28T05:14:46;101868.31;;;3.71;100.00
73651;BME280;61944;52.538;6.108;2024-02-28T05:17:11;101866.56;;;3.75;100.00
73651;BME280;61944;52.538;6.108;2024-02-28T05:19:37;101861.13;;;3.70;100.00
73651;BME280;61944;52.538;6.108;2024-02-28T05:22:02;101858.66;;;3.55;100.00
73651;BME280;61944;52.538;6.108;2024-02-28T05:24:28;101860.53;;;3.73;100.00
73651;BME280;61944;52.538;6.108;2024-02-28T05:26:53;101863.91;;;3.70;100.00
73651;BME280;61944;52.538;6.108;2024-02-28T05:29:19;101868.00;;;3.59;100.00
73651;BME280;61944;52.538;6.108;2024-02-28T05:31:44;101862.78;;;3.71;100.00
73651;BME280;61944;52.538;6.108;2024-02-28T05:34:09;101863.59;;;3.72;100.00
73651;BME280;61944;52.538;6.108;2024-02-28T05:36:35;101868.72;;;3.78;100.00
73651;BME280;61944;52.538;6.108;2024-02-28T05:39:00;101864.72;;;3.84;100.00
73651;BME280;61944;52.538;6.108;2024-02-28T05:41:26;101875.88;;;3.79;100.00
73651;BME280;61944;52.538;6.108;2024-02-28T05:43:52;101862.03;;;3.79;100.00
73651;BME280;61944;52.538;6.108;2024-02-28T05:46:18;101861.44;;;3.82;100.00
73651;BME280;61944;52.538;6.108;2024-02-28T05:48:44;101862.03;;;3.79;100.00
73651;BME280;61944;52.538;6.108;2024-02-28T05:51:11;101862.66;;;3.76;100.00
73651;BME280;61944;52.538;6.108;2024-02-28T05:53:37;101862.78;;;3.71;100.00
73651;BME280;61944;52.538;6.108;2024-02-28T05:56:07;101876.31;;;3.86;100.00
73651;BME280;61944;52.538;6.108;2024-02-28T05:58:46;101864.50;;;3.81;100.00
73651;BME280;61944;52.538;6.108;2024-02-28T06:01:15;101877.53;;;3.80;100.00
73651;BME280;61944;52.538;6.108;2024-02-28T06:03:40;101875.81;;;3.84;100.00
73651;BME280;61944;52.538;6.108;2024-02-28T06:06:06;101877.25;;;3.82;100.00
73651;BME280;61944;52.538;6.108;2024-02-28T06:08:37;101875.38;;;3.77;100.00
73651;BME280;61944;52.538;6.108;2024-02-28T06:11:03;101867.38;;;3.90;100.00
73651;BME280;61944;52.538;6.108;2024-02-28T06:13:29;101875.69;;;3.90;100.00
73651;BME280;61944;52.538;6.108;2024-02-28T06:15:55;101871.69;;;3.68;100.00
73651;BME280;61944;52.538;6.108;2024-02-28T06:18:21;101873.44;;;3.78;100.00
73651;BME280;61944;52.538;6.108;2024-02-28T06:20:48;101883.69;;;3.91;100.00
73651;BME280;61944;52.538;6.108;2024-02-28T06:23:13;101876.19;;;3.64;100.00
73651;BME280;61944;52.538;6.108;2024-02-28T06:25:39;101876.09;;;3.83;100.00
73651;BME280;61944;52.538;6.108;2024-02-28T06:28:04;101877.75;;;3.98;100.00
73651;BME280;61944;52.538;6.108;2024-02-28T06:30:32;101884.94;;;3.99;100.00
73651;BME280;61944;52.538;6.108;2024-02-28T06:33:01;101893.53;;;3.83;100.00
73651;BME280;61944;52.538;6.108;2024-02-28T06:35:27;101907.81;;;3.91;100.00
73651;BME280;61944;52.538;6.108;2024-02-28T06:37:53;101906.78;;;4.00;100.00
73651;BME280;61944;52.538;6.108;2024-02-28T06:40:18;101908.31;;;3.93;100.00
73651;BME280;61944;52.538;6.108;2024-02-28T06:42:44;101905.03;;;4.04;100.00
73651;BME280;61944;52.538;6.108;2024-02-28T06:45:09;101912.94;;;4.11;100.00
73651;BME280;61944;52.538;6.108;2024-02-28T06:47:35;101912.75;;;4.07;100.00
73651;BME280;61944;52.538;6.108;2024-02-28T06:50:02;101916.84;;;4.10;100.00
73651;BME280;61944;52.538;6.108;2024-02-28T06:52:28;101908.81;;;4.08;100.00
73651;BME280;61944;52.538;6.108;2024-02-28T06:54:53;101913.13;;;4.15;100.00
73651;BME280;61944;52.538;6.108;2024-02-28T06:57:18;101924.13;;;4.06;100.00
73651;BME280;61944;52.538;6.108;2024-02-28T06:59:44;101926.28;;;4.09;100.00
73651;BME280;61944;52.538;6.108;2024-02-28T07:02:10;101929.16;;;4.04;100.00
73651;BME280;61944;52.538;6.108;2024-02-28T07:04:35;101931.84;;;4.09;100.00
73651;BME280;61944;52.538;6.108;2024-02-28T07:07:01;101933.16;;;3.98;100.00
73651;BME280;61944;52.538;6.108;2024-02-28T07:09:27;101940.16;;;4.59;100.00
73651;BME280;61944;52.538;6.108;2024-02-28T07:11:55;101945.56;;;4.42;100.00
73651;BME280;61944;52.538;6.108;2024-02-28T07:14:20;101938.88;;;4.15;100.00
73651;BME280;61944;52.538;6.108;2024-02-28T07:16:45;101939.00;;;3.96;100.00
73651;BME280;61944;52.538;6.108;2024-02-28T07:19:11;101936.97;;;3.88;100.00
73651;BME280;61944;52.538;6.108;2024-02-28T07:21:36;101947.19;;;3.87;100.00
73651;BME280;61944;52.538;6.108;2024-02-28T07:24:02;101944.53;;;3.82;100.00
73651;BME280;61944;52.538;6.108;2024-02-28T07:26:30;101948.84;;;3.89;100.00
73651;BME280;61944;52.538;6.108;2024-02-28T07:28:55;101954.47;;;3.83;100.00
73651;BME280;61944;52.538;6.108;2024-02-28T07:31:21;101951.69;;;3.83;100.00
73651;BME280;61944;52.538;6.108;2024-02-28T07:33:47;101959.94;;;3.89;100.00
73651;BME280;61944;52.538;6.108;2024-02-28T07:36:13;101959.31;;;3.92;100.00
73651;BME280;61944;52.538;6.108;2024-02-28T07:38:41;101959.13;;;3.88;100.00
73651;BME280;61944;52.538;6.108;2024-02-28T07:41:06;101960.72;;;3.75;100.00
73651;BME280;61944;52.538;6.108;2024-02-28T07:43:32;101963.63;;;3.84;100.00
73651;BME280;61944;52.538;6.108;2024-02-28T07:46:02;101969.34;;;3.74;100.00
73651;BME280;61944;52.538;6.108;2024-02-28T07:48:27;101970.25;;;3.69;100.00
73651;BME280;61944;52.538;6.108;2024-02-28T07:50:53;101966.06;;;3.85;100.00
73651;BME280;61944;52.538;6.108;2024-02-28T07:53:18;101973.06;;;3.97;100.00
73651;BME280;61944;52.538;6.108;2024-02-28T07:55:43;101978.63;;;3.97;100.00
73651;BME280;61944;52.538;6.108;2024-02-28T07:58:10;101978.63;;;3.97;100.00
73651;BME280;61944;52.538;6.108;2024-02-28T08:00:35;101981.16;;;4.62;100.00
73651;BME280;61944;52.538;6.108;2024-02-28T08:03:01;101983.75;;;4.31;100.00
73651;BME280;61944;52.538;6.108;2024-02-28T08:05:26;101988.69;;;4.20;100.00
73651;BME280;61944;52.538;6.108;2024-02-28T08:07:52;101983.22;;;4.15;100.00
73651;BME280;61944;52.538;6.108;2024-02-28T08:10:17;101995.22;;;4.11;100.00
73651;BME280;61944;52.538;6.108;2024-02-28T08:12:42;101985.59;;;4.08;100.00
73651;BME280;61944;52.538;6.108;2024-02-28T08:15:09;101994.19;;;4.06;100.00
73651;BME280;61944;52.538;6.108;2024-02-28T08:17:35;101998.94;;;4.06;100.00
73651;BME280;61944;52.538;6.108;2024-02-28T08:20:00;102009.94;;;4.11;100.00
73651;BME280;61944;52.538;6.108;2024-02-28T08:22:26;102011.25;;;4.14;100.00
73651;BME280;61944;52.538;6.108;2024-02-28T08:24:52;102006.75;;;4.18;100.00
73651;BME280;61944;52.538;6.108;2024-02-28T08:27:17;102008.81;;;4.26;100.00
73651;BME280;61944;52.538;6.108;2024-02-28T08:29:42;102009.63;;;4.26;100.00
73651;BME280;61944;52.538;6.108;2024-02-28T08:32:11;102005.94;;;4.45;100.00
73651;BME280;61944;52.538;6.108;2024-02-28T08:34:37;102008.41;;;4.33;100.00
73651;BME280;61944;52.538;6.108;2024-02-28T08:37:02;102008.41;;;4.33;100.00
73651;BME280;61944;52.538;6.108;2024-02-28T08:39:27;102009.44;;;4.37;100.00
73651;BME280;61944;52.538;6.108;2024-02-28T08:41:53;102010.66;;;4.31;100.00
73651;BME280;61944;52.538;6.108;2024-02-28T08:44:18;102009.63;;;4.26;100.00
73651;BME280;61944;52.538;6.108;2024-02-28T08:46:46;102012.81;;;4.20;100.00
73651;BME280;61944;52.538;6.108;2024-02-28T08:49:13;102002.66;;;4.43;100.00
73651;BME280;61944;52.538;6.108;2024-02-28T08:51:38;102010.84;;;4.48;100.00
73651;BME280;61944;52.538;6.108;2024-02-28T08:54:05;102012.50;;;4.49;100.00
73651;BME280;61944;52.538;6.108;2024-02-28T08:56:30;102014.66;;;4.52;100.00
73651;BME280;61944;52.538;6.108;2024-02-28T08:58:56;102009.00;;;4.57;100.00
73651;BME280;61944;52.538;6.108;2024-02-28T09:01:21;102023.78;;;4.66;100.00
73651;BME280;61944;52.538;6.108;2024-02-28T09:03:46;102021.00;;;4.66;100.00
73651;BME280;61944;52.538;6.108;2024-02-28T09:06:12;102020.59;;;4.73;100.00
73651;BME280;61944;52.538;6.108;2024-02-28T09:08:37;102009.50;;;4.73;100.00
73651;BME280;61944;52.538;6.108;2024-02-28T09:11:02;102007.16;;;4.66;100.00
73651;BME280;61944;52.538;6.108;2024-02-28T09:13:29;102009.38;;;4.78;100.00
73651;BME280;61944;52.538;6.108;2024-02-28T09:15:55;102006.72;;;4.87;100.00
73651;BME280;61944;52.538;6.108;2024-02-28T09:18:20;102008.53;;;4.92;100.00
73651;BME280;61944;52.538;6.108;2024-02-28T09:20:46;101999.88;;;4.93;100.00
73651;BME280;61944;52.538;6.108;2024-02-28T09:23:11;101995.22;;;5.39;100.00
73651;BME280;61944;52.538;6.108;2024-02-28T09:25:36;101999.94;;;5.16;100.00
73651;BME280;61944;52.538;6.108;2024-02-28T09:28:02;102002.72;;;5.16;100.00
73651;BME280;61944;52.538;6.108;2024-02-28T09:30:28;102007.88;;;5.08;100.00
73651;BME280;61944;52.538;6.108;2024-02-28T09:32:53;102009.66;;;5.04;100.00
73651;BME280;61944;52.538;6.108;2024-02-28T09:35:19;102008.13;;;4.98;100.00
73651;BME280;61944;52.538;6.108;2024-02-28T09:37:44;102012.72;;;5.03;100.00
73651;BME280;61944;52.538;6.108;2024-02-28T09:40:10;102013.44;;;5.08;100.00
73651;BME280;61944;52.538;6.108;2024-02-28T09:42:36;102013.44;;;5.08;100.00
73651;BME280;61944;52.538;6.108;2024-02-28T09:45:03;102018.56;;;5.15;100.00
73651;BME280;61944;52.538;6.108;2024-02-28T09:47:29;102020.69;;;5.18;100.00
73651;BME280;61944;52.538;6.108;2024-02-28T09:49:57;102024.69;;;5.26;100.00
73651;BME280;61944;52.538;6.108;2024-02-28T09:52:23;102024.53;;;5.31;100.00
73651;BME280;61944;52.538;6.108;2024-02-28T09:54:49;102028.97;;;5.32;100.00
73651;BME280;61944;52.538;6.108;2024-02-28T09:57:14;102029.56;;;5.43;100.00
73651;BME280;61944;52.538;6.108;2024-02-28T09:59:41;102024.66;;;5.40;100.00
73651;BME280;61944;52.538;6.108;2024-02-28T10:02:12;102025.16;;;5.42;100.00
73651;BME280;61944;52.538;6.108;2024-02-28T10:04:39;102036.25;;;5.42;100.00
73651;BME280;61944;52.538;6.108;2024-02-28T10:07:14;102024.81;;;5.43;100.00
73651;BME280;61944;52.538;6.108;2024-02-28T10:09:42;102017.50;;;5.47;100.00
73651;BME280;61944;52.538;6.108;2024-02-28T10:12:08;102021.94;;;5.48;100.00
73651;BME280;61944;52.538;6.108;2024-02-28T10:14:33;102016.53;;;5.52;100.00
73651;BME280;61944;52.538;6.108;2024-02-28T10:16:59;102028.88;;;5.60;100.00
73651;BME280;61944;52.538;6.108;2024-02-28T10:19:24;102031.50;;;5.65;100.00
73651;BME280;61944;52.538;6.108;2024-02-28T10:21:50;102041.50;;;5.66;100.00
73651;BME280;61944;52.538;6.108;2024-02-28T10:24:16;102041.63;;;5.61;100.00
73651;BME280;61944;52.538;6.108;2024-02-28T10:26:45;102044.13;;;5.71;100.00
73651;BME280;61944;52.538;6.108;2024-02-28T10:29:11;102040.03;;;5.68;100.00
73651;BME280;61944;52.538;6.108;2024-02-28T10:31:37;102040.22;;;5.72;100.00
73651;BME280;61944;52.538;6.108;2024-02-28T10:34:03;102054.53;;;5.88;100.00
73651;BME280;61944;52.538;6.108;2024-02-28T10:36:31;102055.19;;;5.85;100.00
73651;BME280;61944;52.538;6.108;2024-02-28T10:38:57;102042.69;;;5.96;100.00
73651;BME280;61944;52.538;6.108;2024-02-28T10:41:24;102052.84;;;6.01;100.00
73651;BME280;61944;52.538;6.108;2024-02-28T10:43:51;102039.34;;;6.08;100.00
73651;BME280;61944;52.538;6.108;2024-02-28T10:46:20;102029.84;;;6.09;100.00
73651;BME280;61944;52.538;6.108;2024-02-28T10:48:46;102037.88;;;6.10;100.00
73651;BME280;61944;52.538;6.108;2024-02-28T10:51:15;102042.44;;;6.06;100.00
73651;BME280;61944;52.538;6.108;2024-02-28T10:53:41;102032.63;;;6.09;100.00
73651;BME280;61944;52.538;6.108;2024-02-28T10:56:09;102034.91;;;6.07;100.00
73651;BME280;61944;52.538;6.108;2024-02-28T10:58:36;102026.00;;;5.96;100.00
73651;BME280;61944;52.538;6.108;2024-02-28T11:01:07;102027.22;;;6.04;100.00
73651;BME280;61944;52.538;6.108;2024-02-28T11:03:33;102023.00;;;6.15;100.00
73651;BME280;61944;52.538;6.108;2024-02-28T11:05:59;102015.25;;;6.35;100.00
73651;BME280;61944;52.538;6.108;2024-02-28T11:08:27;102019.22;;;6.51;100.00
73651;BME280;61944;52.538;6.108;2024-02-28T11:11:02;102017.63;;;6.67;100.00
73651;BME280;61944;52.538;6.108;2024-02-28T11:13:29;102027.66;;;6.77;100.00
73651;BME280;61944;52.538;6.108;2024-02-28T11:16:07;102024.69;;;6.74;100.00
73651;BME280;61944;52.538;6.108;2024-02-28T11:18:32;102012.09;;;6.85;100.00
73651;BME280;61944;52.538;6.108;2024-02-28T11:20:58;102009.50;;;6.80;100.00
73651;BME280;61944;52.538;6.108;2024-02-28T11:23:23;102011.66;;;6.91;100.00
73651;BME280;61944;52.538;6.108;2024-02-28T11:25:49;102010.50;;;7.19;100.00
73651;BME280;61944;52.538;6.108;2024-02-28T11:28:15;102006.09;;;7.09;100.00
73651;BME280;61944;52.538;6.108;2024-02-28T11:30:41;102012.78;;;7.17;100.00
73651;BME280;61944;52.538;6.108;2024-02-28T11:33:06;102015.41;;;7.39;100.00
73651;BME280;61944;52.538;6.108;2024-02-28T11:35:34;102020.00;;;7.35;100.00
73651;BME280;61944;52.538;6.108;2024-02-28T11:38:00;102016.91;;;7.28;100.00
73651;BME280;61944;52.538;6.108;2024-02-28T11:40:26;102009.19;;;7.25;100.00
73651;BME280;61944;52.538;6.108;2024-02-28T11:42:52;102001.97;;;7.41;100.00
73651;BME280;61944;52.538;6.108;2024-02-28T11:45:18;101998.53;;;7.53;100.00
73651;BME280;61944;52.538;6.108;2024-02-28T11:47:44;101995.41;;;7.54;100.00
73651;BME280;61944;52.538;6.108;2024-02-28T11:50:10;101993.28;;;7.51;100.00
73651;BME280;61944;52.538;6.108;2024-02-28T11:52:35;101989.22;;;7.40;100.00
73651;BME280;61944;52.538;6.108;2024-02-28T11:55:01;101996.59;;;7.45;100.00
73651;BME280;61944;52.538;6.108;2024-02-28T11:57:26;101989.03;;;7.45;100.00
73651;BME280;61944;52.538;6.108;2024-02-28T11:59:52;101985.44;;;7.53;100.00
73651;BME280;61944;52.538;6.108;2024-02-28T12:02:17;101988.03;;;7.59;100.00
73651;BME280;61944;52.538;6.108;2024-02-28T12:04:44;101986.41;;;7.58;100.00
73651;BME280;61944;52.538;6.108;2024-02-28T12:07:10;101987.22;;;7.49;100.00
73651;BME280;61944;52.538;6.108;2024-02-28T12:09:36;101989.69;;;7.51;100.00
73651;BME280;61944;52.538;6.108;2024-02-28T12:12:01;101991.63;;;7.50;100.00
73651;BME280;61944;52.538;6.108;2024-02-28T12:14:31;101987.22;;;7.49;100.00
73651;BME280;61944;52.538;6.108;2024-02-28T12:16:57;101989.84;;;7.54;100.00
73651;BME280;61944;52.538;6.108;2024-02-28T12:19:23;101990.81;;;7.59;100.00
73651;BME280;61944;52.538;6.108;2024-02-28T12:21:49;101985.25;;;7.59;100.00
73651;BME280;61944;52.538;6.108;2024-02-28T12:24:14;101980.81;;;7.66;100.00
73651;BME280;61944;52.538;6.108;2024-02-28T12:26:40;101975.06;;;7.63;100.00
73651;BME280;61944;52.538;6.108;2024-02-28T12:29:05;101979.19;;;7.65;100.00
73651;BME280;61944;52.538;6.108;2024-02-28T12:31:31;101973.75;;;7.69;100.00
73651;BME280;61944;52.538;6.108;2024-02-28T12:33:56;101969.81;;;7.70;100.00
73651;BME280;61944;52.538;6.108;2024-02-28T12:36:22;101969.16;;;7.73;100.00
73651;BME280;61944;52.538;6.108;2024-02-28T12:38:47;101970.44;;;7.84;100.00
73651;BME280;61944;52.538;6.108;2024-02-28T12:41:13;101963.38;;;7.87;100.00
73651;BME280;61944;52.538;6.108;2024-02-28T12:43:39;101961.94;;;7.81;100.00